Time;durP1;ratioP1;P1;durP2;ratioP2;P2;SDS_P1;SDS_P2;PMS_P1;PMS_P2;Temp;Humidity;BMP_temperature;BMP_pressure;BME280_temperature;BME280_humidity;BME280_pressure;Samples;Min_cycle;Max_cycle;Signal;HPM_P1;HPM_P2
2020/12/24 14:12:16;;;;;;;7.63;2.60;;;6.10;99.90;;;;;;11949132;24;20059;31
2020/12/24 14:17:18;;;;;;;7.72;3.05;;;6.00;99.90;;;;;;9858369;30;20055;-90
2020/12/24 14:22:19;;;;;;;15.25;3.35;;;6.00;99.90;;;;;;9829579;30;20070;-91
2020/12/24 14:27:21;;;;;;;13.95;3.22;;;5.90;99.90;;;;;;9844280;30;20059;-90
2020/12/24 14:32:22;;;;;;;14.55;4.00;;;5.90;99.90;;;;;;9843711;30;20146;-91
2020/12/24 14:37:24;;;;;;;13.15;3.30;;;5.80;99.90;;;;;;9858136;30;20491;-91
2020/12/24 14:42:25;;;;;;;7.97;2.95;;;5.80;99.90;;;;;;9844199;30;20072;-91
2020/12/24 14:47:27;;;;;;;9.23;2.08;;;5.80;99.90;;;;;;9843419;30;20572;-91
2020/12/24 14:52:28;;;;;;;9.30;2.35;;;5.70;99.90;;;;;;9843406;30;20491;-91
2020/12/24 14:57:30;;;;;;;10.45;2.47;;;5.60;99.90;;;;;;9843848;30;20087;-91
2020/12/24 15:02:34;;;;;;;7.35;2.15;;;5.50;99.90;;;;;;9843185;30;20105;-91
2020/12/24 15:07:35;;;;;;;9.93;2.85;;;5.40;99.90;;;;;;9842599;30;20055;-90
2020/12/24 15:12:37;;;;;;;15.75;4.35;;;5.30;99.90;;;;;;9842442;30;20483;-91
2020/12/24 15:17:40;;;;;;;8.82;2.78;;;5.20;99.90;;;;;;9857309;30;20130;-91
2020/12/24 15:22:41;;;;;;;10.13;4.05;;;5.10;99.90;;;;;;9858212;30;20126;-91
2020/12/24 15:27:43;;;;;;;13.00;3.83;;;5.10;99.90;;;;;;9857129;30;20135;-92
2020/12/24 15:32:45;;;;;;;11.57;3.58;;;5.00;99.90;;;;;;9836229;30;20064;-92
2020/12/24 15:37:48;;;;;;;12.63;3.50;;;4.90;99.90;;;;;;9829515;30;20086;-94
2020/12/24 15:42:51;;;;;;;9.40;4.20;;;4.90;99.90;;;;;;9848658;30;20147;-94
2020/12/24 15:47:52;;;;;;;7.80;3.22;;;4.90;99.90;;;;;;9849667;30;20535;-93
2020/12/24 15:52:54;;;;;;;13.07;4.07;;;4.80;99.90;;;;;;9849104;30;20067;-93
2020/12/24 15:57:56;;;;;;;19.40;5.10;;;4.80;99.90;;;;;;9827449;30;20068;-93
2020/12/24 16:02:57;;;;;;;;;;;4.70;99.90;;;;;;9811982;30;20471;-93
2020/12/24 16:07:59;;;;;;;9.63;3.08;;;4.70;99.90;;;;;;9812616;30;20025;-95
2020/12/24 16:13:01;;;;;;;6.20;3.35;;;4.60;99.90;;;;;;9811645;30;20078;-92
2020/12/24 16:18:12;;;;;;;8.93;4.10;;;4.60;99.90;;;;;;9815437;30;20060;-91
2020/12/24 16:23:14;;;;;;;;;;;4.40;99.90;;;;;;9812484;30;20060;-93
2020/12/24 16:28:15;;;;;;;11.27;3.38;;;4.30;99.90;;;;;;9811541;30;19926;-92
2020/12/24 16:33:17;;;;;;;12.10;3.92;;;4.30;99.90;;;;;;9811644;30;20064;-92
2020/12/24 16:38:19;;;;;;;7.82;2.65;;;4.30;99.90;;;;;;9810737;30;20086;-91
2020/12/24 16:43:20;;;;;;;13.05;4.78;;;4.30;99.90;;;;;;9810449;30;20084;-92
2020/12/24 16:48:22;;;;;;;14.63;5.47;;;4.30;99.90;;;;;;9811766;30;20084;-92
2020/12/24 16:53:23;;;;;;;20.33;5.47;;;4.30;99.90;;;;;;9860577;30;20504;-92
2020/12/24 16:58:25;;;;;;;12.30;5.00;;;4.20;99.90;;;;;;9847917;30;20138;-92
2020/12/24 17:03:27;;;;;;;12.95;5.10;;;4.10;99.90;;;;;;9862069;30;20144;-93
2020/12/24 17:08:30;;;;;;;18.55;5.65;;;4.10;99.90;;;;;;9861886;30;20139;-91
2020/12/24 17:13:31;;;;;;;9.00;3.92;;;4.20;99.90;;;;;;9861367;30;20067;-90
2020/12/24 17:18:33;;;;;;;16.02;5.40;;;4.30;99.90;;;;;;9833015;30;20150;-91
2020/12/24 17:23:34;;;;;;;24.58;7.32;;;4.30;99.90;;;;;;9833027;30;20068;-90
2020/12/24 17:28:39;;;;;;;20.02;8.63;;;4.10;99.90;;;;;;9809304;30;20508;-91
2020/12/24 17:33:41;;;;;;;17.30;5.95;;;4.10;99.90;;;;;;9795808;30;20083;-91
2020/12/24 17:38:43;;;;;;;12.75;5.53;;;4.00;99.90;;;;;;9808929;30;20135;-91
2020/12/24 17:43:45;;;;;;;13.30;5.50;;;4.00;99.90;;;;;;9809450;30;20090;-92
2020/12/24 17:48:47;;;;;;;13.25;4.13;;;4.00;99.90;;;;;;9794946;30;20068;-91
2020/12/24 17:53:49;;;;;;;15.48;5.47;;;3.90;99.90;;;;;;9808563;30;20064;-91
2020/12/24 17:58:52;;;;;;;16.58;6.78;;;3.90;99.90;;;;;;9793810;30;20125;-91
2020/12/24 18:03:53;;;;;;;24.13;7.30;;;4.00;99.90;;;;;;9794043;30;20420;-90
2020/12/24 18:08:55;;;;;;;9.55;5.18;;;4.10;99.90;;;;;;9794306;30;20095;-92
2020/12/24 18:13:56;;;;;;;12.20;5.65;;;4.20;99.90;;;;;;9807498;30;20060;-92
2020/12/24 18:18:58;;;;;;;10.68;4.22;;;4.10;99.90;;;;;;9807640;30;20087;-92
2020/12/24 18:24:00;;;;;;;10.10;4.00;;;4.20;99.90;;;;;;9808249;30;20087;-92
2020/12/24 18:29:01;;;;;;;8.73;4.13;;;4.20;99.90;;;;;;9793206;30;20099;-91
2020/12/24 18:34:03;;;;;;;13.25;4.50;;;4.30;99.90;;;;;;9820741;30;20088;-91
2020/12/24 18:39:04;;;;;;;16.02;5.90;;;4.30;99.90;;;;;;9809964;30;20115;-91
2020/12/24 18:44:06;;;;;;;13.48;5.10;;;4.30;99.90;;;;;;9813101;30;20064;-90
2020/12/24 18:49:07;;;;;;;10.05;5.10;;;4.40;99.90;;;;;;9812076;30;20142;-90
2020/12/24 18:54:09;;;;;;;12.70;3.65;;;4.40;99.90;;;;;;9843372;30;20139;-90
2020/12/24 18:59:11;;;;;;;7.90;2.72;;;4.50;99.90;;;;;;9828080;30;20074;-90
2020/12/24 19:04:12;;;;;;;6.80;2.17;;;4.30;99.90;;;;;;9841461;30;20146;-91
2020/12/24 19:09:14;;;;;;;7.80;2.50;;;4.30;99.90;;;;;;9842231;30;20067;-90
2020/12/24 19:14:15;;;;;;;;;;;4.30;99.90;;;;;;9844230;30;20104;-92
2020/12/24 19:19:17;;;;;;;10.05;4.05;;;4.40;99.90;;;;;;9840171;30;20334;-91
2020/12/24 19:24:19;;;;;;;7.03;2.70;;;4.30;99.90;;;;;;9854790;30;20143;-91
2020/12/24 19:29:21;;;;;;;6.40;2.97;;;4.40;99.90;;;;;;9840039;30;20150;-91
2020/12/24 19:34:22;;;;;;;11.05;3.05;;;4.30;99.90;;;;;;9869372;30;20119;-91
2020/12/24 19:39:24;;;;;;;10.02;2.97;;;4.30;99.90;;;;;;9854286;30;20087;-91
2020/12/24 19:44:25;;;;;;;8.32;3.15;;;4.30;99.90;;;;;;9869067;30;20086;-90
2020/12/24 19:49:27;;;;;;;9.18;4.90;;;4.30;99.90;;;;;;9840221;30;20067;-92
2020/12/24 19:54:29;;;;;;;12.57;4.93;;;4.30;99.90;;;;;;9869879;30;20116;-91
2020/12/24 19:59:31;;;;;;;8.88;3.45;;;4.30;99.90;;;;;;9840190;30;20143;-91
2020/12/24 20:04:35;;;;;;;5.68;3.58;;;4.20;99.90;;;;;;9868968;30;20068;-90
2020/12/24 20:09:37;;;;;;;8.80;3.33;;;4.20;99.90;;;;;;9868749;30;20072;-91
2020/12/24 20:14:39;;;;;;;7.78;4.55;;;4.20;99.90;;;;;;9846454;30;20099;-91
2020/12/24 20:19:40;;;;;;;;;;;4.20;99.90;;;;;;9876870;30;20151;-91
2020/12/24 20:24:42;;;;;;;8.45;2.60;;;4.30;99.90;;;;;;9901527;30;20043;-92
2020/12/24 20:29:43;;;;;;;8.63;3.15;;;4.30;99.90;;;;;;9865724;30;20063;-92
2020/12/24 20:34:45;;;;;;;;;;;4.30;99.90;;;;;;9899656;30;20116;-91
2020/12/24 20:39:47;;;;;;;7.30;3.13;;;4.30;99.90;;;;;;9878592;30;19954;-91
2020/12/24 20:44:48;;;;;;;12.75;4.57;;;4.30;99.90;;;;;;9811011;30;20501;-91
2020/12/24 20:49:51;;;;;;;19.10;8.85;;;4.20;99.90;;;;;;9822158;30;20412;-91
2020/12/24 20:54:52;;;;;;;14.27;5.93;;;4.20;99.90;;;;;;9829249;30;20063;-91
2020/12/24 20:59:54;;;;;;;11.25;6.43;;;4.20;99.90;;;;;;9806026;30;20129;-93
2020/12/24 21:04:57;;;;;;;10.18;4.65;;;4.30;99.90;;;;;;9817260;30;20555;-91
2020/12/24 21:09:59;;;;;;;15.55;6.00;;;4.30;99.90;;;;;;9837429;30;20142;-91
2020/12/24 21:15:00;;;;;;;12.18;3.80;;;4.30;99.90;;;;;;9809346;30;20284;-91
2020/12/24 21:20:03;;;;;;;;;;;4.40;99.90;;;;;;9810082;30;20131;-91
2020/12/24 21:25:04;;;;;;;15.80;3.60;;;4.40;99.90;;;;;;9851682;30;20356;-92
2020/12/24 21:30:06;;;;;;;8.07;4.72;;;4.30;99.90;;;;;;9844684;30;20463;-92
2020/12/24 21:35:07;;;;;;;6.22;3.38;;;4.20;99.90;;;;;;9845879;30;20055;-92
2020/12/24 21:40:09;;;;;;;13.50;3.08;;;4.10;99.90;;;;;;9844876;30;20055;-92
2020/12/24 21:45:11;;;;;;;9.57;4.97;;;4.00;99.90;;;;;;9845162;30;20067;-92
2020/12/24 21:50:13;;;;;;;13.82;4.45;;;3.90;99.90;;;;;;9845790;30;20121;-91
2020/12/24 21:55:15;;;;;;;9.48;3.90;;;3.80;99.90;;;;;;9844939;30;20066;-92
2020/12/24 22:00:16;;;;;;;12.73;5.25;;;3.70;99.90;;;;;;9859340;30;20067;-92
2020/12/24 22:05:18;;;;;;;8.57;4.90;;;3.70;99.90;;;;;;9859834;30;20071;-92
2020/12/24 22:10:19;;;;;;;10.65;3.28;;;3.70;99.90;;;;;;9830391;30;20120;-92
2020/12/24 22:15:24;;;;;;;7.90;3.10;;;3.70;99.90;;;;;;9844380;30;20064;-91
2020/12/24 22:20:27;;;;;;;11.07;4.05;;;3.60;99.90;;;;;;9830656;30;20052;-91
2020/12/24 22:25:31;;;;;;;12.43;3.33;;;3.50;99.90;;;;;;9844646;30;20488;-91
2020/12/24 22:30:33;;;;;;;12.07;3.13;;;3.50;99.90;;;;;;9829474;30;20483;-91
2020/12/24 22:35:34;;;;;;;12.13;2.60;;;3.40;99.90;;;;;;9858938;30;20159;-91
2020/12/24 22:40:37;;;;;;;11.68;2.72;;;3.50;99.90;;;;;;9843888;30;20066;-92
2020/12/24 22:45:39;;;;;;;8.65;2.42;;;3.60;99.90;;;;;;9844284;30;20063;-91
2020/12/24 22:50:40;;;;;;;10.05;2.85;;;3.70;99.90;;;;;;9843157;30;20083;-91
2020/12/24 22:55:42;;;;;;;9.50;4.43;;;3.70;99.90;;;;;;9858216;30;20067;-91
2020/12/24 23:00:43;;;;;;;14.73;4.65;;;3.70;99.90;;;;;;9843387;30;20080;-91
2020/12/24 23:05:45;;;;;;;;;;;3.70;99.90;;;;;;9840535;30;20056;-91
2020/12/24 23:10:47;;;;;;;20.27;5.25;;;3.80;99.90;;;;;;9792087;30;19926;-91
2020/12/24 23:15:48;;;;;;;13.35;4.82;;;3.80;99.90;;;;;;9821029;30;20064;-92
2020/12/24 23:20:50;;;;;;;12.73;4.60;;;3.80;99.90;;;;;;9857715;30;20484;-92
2020/12/24 23:25:52;;;;;;;11.80;4.40;;;3.80;99.90;;;;;;9842790;30;20120;-91
2020/12/24 23:30:53;;;;;;;12.63;4.50;;;3.70;99.90;;;;;;9842661;30;20091;-92
2020/12/24 23:35:55;;;;;;;14.82;3.33;;;3.80;99.90;;;;;;9827159;30;20094;-91
2020/12/24 23:40:57;;;;;;;42.67;6.47;;;3.70;99.90;;;;;;9855520;30;20475;-92
2020/12/24 23:45:58;;;;;;;16.50;4.18;;;3.70;99.90;;;;;;9827060;30;20146;-92
2020/12/24 23:51:00;;;;;;;10.73;2.78;;;3.70;99.90;;;;;;9856771;30;20164;-92
2020/12/24 23:56:02;;;;;;;4.57;2.60;;;3.60;99.90;;;;;;9857782;30;20488;-92
